Time;durP1;ratioP1;P1;durP2;ratioP2;P2;SDS_P1;SDS_P2;PMS_P1;PMS_P2;Temp;Humidity;BMP_temperature;BMP_pressure;BME280_temperature;BME280_humidity;BME280_pressure;Samples;Min_cycle;Max_cycle;Signal;HPM_P1;HPM_P2
2021/05/17 00:01:56;;;;;;;3.63;1.60;;;13.10;99.90;;;;;;4967503;28;20490;-57
2021/05/17 00:04:31;;;;;;;3.30;1.73;;;13.10;99.90;;;;;;4956610;28;20459;-54
2021/05/17 00:06:58;;;;;;;2.57;1.40;;;13.10;99.90;;;;;;4953418;28;20454;-55
2021/05/17 00:09:24;;;;;;;2.70;1.73;;;13.10;99.90;;;;;;4957394;28;20534;-52
2021/05/17 00:11:52;;;;;;;3.20;1.80;;;13.00;99.90;;;;;;4962218;28;20462;-54
2021/05/17 00:14:19;;;;;;;2.47;1.97;;;13.00;99.90;;;;;;4964650;28;20451;-48
2021/05/17 00:16:46;;;;;;;1.90;1.70;;;12.90;99.90;;;;;;4964665;28;20478;-56
2021/05/17 00:19:13;;;;;;;2.93;1.87;;;12.90;99.90;;;;;;4962946;28;20819;-48
2021/05/17 00:21:39;;;;;;;2.10;1.53;;;12.90;99.90;;;;;;4958205;28;20467;-56
2021/05/17 00:24:07;;;;;;;4.73;1.73;;;12.90;99.90;;;;;;4954014;29;20448;-54
2021/05/17 00:26:34;;;;;;;1.93;1.63;;;12.80;99.90;;;;;;4954369;28;20444;-56
2021/05/17 00:29:01;;;;;;;2.53;1.93;;;12.80;99.90;;;;;;4953836;28;20965;-54
2021/05/17 00:31:28;;;;;;;2.33;1.93;;;12.80;99.90;;;;;;4952969;28;20448;-54
2021/05/17 00:33:55;;;;;;;2.23;1.40;;;12.80;99.90;;;;;;4946068;29;20478;-55
2021/05/17 00:36:22;;;;;;;1.90;1.63;;;12.70;99.90;;;;;;4951876;28;20460;-57
2021/05/17 00:38:48;;;;;;;3.73;2.03;;;12.70;99.90;;;;;;4962237;28;20470;-52
2021/05/17 00:41:15;;;;;;;2.33;2.13;;;12.70;99.90;;;;;;4953770;28;20487;-55
2021/05/17 00:43:42;;;;;;;1.93;1.30;;;12.70;99.90;;;;;;4954648;28;20793;-53
2021/05/17 00:46:10;;;;;;;3.40;1.80;;;12.70;99.90;;;;;;4954961;28;20770;-56
2021/05/17 00:48:38;;;;;;;2.33;2.13;;;12.60;99.90;;;;;;4953626;28;20509;-55
2021/05/17 00:51:07;;;;;;;1.70;1.60;;;12.60;99.90;;;;;;4953416;28;20777;-54
2021/05/17 00:53:33;;;;;;;2.87;2.10;;;12.50;99.90;;;;;;4955413;28;20460;-51
2021/05/17 00:55:59;;;;;;;2.33;1.90;;;12.50;99.90;;;;;;4955633;28;20444;-51
2021/05/17 00:58:26;;;;;;;6.93;2.20;;;12.50;99.90;;;;;;4956020;28;20478;-51
2021/05/17 01:00:53;;;;;;;2.17;1.43;;;12.50;99.90;;;;;;4954478;28;20479;-54
2021/05/17 01:03:20;;;;;;;2.43;2.03;;;12.50;99.90;;;;;;4953446;28;20451;-55
2021/05/17 01:05:47;;;;;;;3.37;2.00;;;12.40;99.90;;;;;;4953517;28;20935;-49
2021/05/17 01:08:22;;;;;;;3.07;2.30;;;12.40;99.90;;;;;;4956414;28;20490;-54
2021/05/17 01:10:49;;;;;;;3.63;1.70;;;12.40;99.90;;;;;;4955980;28;20470;-50
2021/05/17 01:13:15;;;;;;;3.27;2.23;;;12.40;99.90;;;;;;4956875;28;20449;-54
2021/05/17 01:15:42;;;;;;;4.00;2.07;;;12.30;99.90;;;;;;4952158;28;20443;-56
2021/05/17 01:18:08;;;;;;;1.97;1.50;;;12.30;99.90;;;;;;4944326;28;20948;-56
2021/05/17 01:20:35;;;;;;;3.50;2.10;;;12.30;99.90;;;;;;4945667;28;20447;-56
2021/05/17 01:23:30;;;;;;;3.20;2.07;;;12.30;99.90;;;;;;4938587;28;20460;-57
2021/05/17 01:25:59;;;;;;;4.40;1.53;;;12.30;99.90;;;;;;4938588;28;20830;-57
2021/05/17 01:28:27;;;;;;;4.67;2.00;;;12.30;99.90;;;;;;4944619;28;20443;-52
2021/05/17 01:30:55;;;;;;;2.37;1.43;;;12.30;99.90;;;;;;4950606;28;20502;-51
2021/05/17 01:33:22;;;;;;;1.97;1.80;;;12.30;99.90;;;;;;4945552;28;20448;-53
2021/05/17 01:35:49;;;;;;;2.00;1.50;;;12.30;99.90;;;;;;4956608;28;20475;-57
2021/05/17 01:38:17;;;;;;;3.73;1.73;;;12.30;99.90;;;;;;4958130;28;20463;-56
2021/05/17 01:40:45;;;;;;;1.77;1.47;;;12.30;99.90;;;;;;4957871;28;20456;-55
2021/05/17 01:43:13;;;;;;;5.40;2.00;;;12.30;99.90;;;;;;4955872;28;20474;-54
2021/05/17 01:45:40;;;;;;;1.93;1.73;;;12.30;99.90;;;;;;4956059;28;20521;-56
2021/05/17 01:48:07;;;;;;;2.23;1.80;;;12.30;99.90;;;;;;4954461;28;20440;-55
2021/05/17 01:50:34;;;;;;;2.50;1.80;;;12.20;99.90;;;;;;4954631;28;20448;-57
2021/05/17 01:53:00;;;;;;;2.20;2.00;;;12.20;99.90;;;;;;4953817;28;20816;-59
2021/05/17 01:55:29;;;;;;;3.40;1.90;;;12.20;99.90;;;;;;4955080;28;20910;-54
2021/05/17 01:58:13;;;;;;;3.03;1.47;;;12.20;99.90;;;;;;4954514;28;21045;-56
2021/05/17 02:00:40;;;;;;;2.23;1.63;;;12.20;99.90;;;;;;4955114;28;20493;-57
2021/05/17 02:03:07;;;;;;;2.00;1.33;;;12.20;99.90;;;;;;4955539;28;20448;-56
2021/05/17 02:05:34;;;;;;;3.47;1.73;;;12.10;99.90;;;;;;4959169;28;20462;-52
2021/05/17 02:08:01;;;;;;;1.60;1.50;;;12.10;99.90;;;;;;4957912;28;20440;-54
2021/05/17 02:10:29;;;;;;;2.03;1.83;;;12.10;99.90;;;;;;4959993;28;20526;-53
2021/05/17 02:12:57;;;;;;;2.00;1.73;;;12.10;99.90;;;;;;4974152;28;20431;-54
2021/05/17 02:15:25;;;;;;;2.87;1.70;;;12.00;99.90;;;;;;4969624;28;20448;-51
2021/05/17 02:18:03;;;;;;;2.20;1.73;;;11.90;99.90;;;;;;4979779;28;20487;-49
2021/05/17 02:20:32;;;;;;;1.97;1.50;;;11.80;99.90;;;;;;4968102;28;20423;-51
2021/05/17 02:23:04;;;;;;;2.80;1.80;;;11.80;99.90;;;;;;4970378;28;20536;-57
2021/05/17 02:25:32;;;;;;;2.67;1.60;;;11.90;99.90;;;;;;4967778;28;20861;-54
2021/05/17 02:27:58;;;;;;;3.67;1.60;;;11.90;99.90;;;;;;4960129;28;20460;-58
2021/05/17 02:30:27;;;;;;;2.10;1.73;;;11.80;99.90;;;;;;4963701;28;20448;-54
2021/05/17 02:32:54;;;;;;;2.03;1.43;;;11.90;99.90;;;;;;4964264;28;21170;-54
2021/05/17 02:35:22;;;;;;;2.37;1.70;;;11.90;99.90;;;;;;4956237;28;20471;-52
2021/05/17 02:37:49;;;;;;;2.00;1.57;;;11.90;99.90;;;;;;4955652;28;20463;-54
2021/05/17 02:40:16;;;;;;;2.00;1.67;;;11.90;99.90;;;;;;4955948;28;20839;-53
2021/05/17 02:42:45;;;;;;;3.30;1.80;;;11.90;99.90;;;;;;4955763;28;20487;-55
2021/05/17 02:45:12;;;;;;;5.70;2.30;;;11.90;99.90;;;;;;4955813;28;20842;-55
2021/05/17 02:47:39;;;;;;;3.07;1.57;;;11.90;99.90;;;;;;4955532;28;20793;-49
2021/05/17 02:50:07;;;;;;;2.40;1.90;;;11.90;99.90;;;;;;4956026;28;20463;-53
2021/05/17 02:52:34;;;;;;;2.50;1.93;;;11.90;99.90;;;;;;4956877;28;20444;-53
2021/05/17 02:55:04;;;;;;;2.53;2.30;;;12.00;99.90;;;;;;4957200;28;20452;-55
2021/05/17 02:57:43;;;;;;;3.23;1.73;;;12.00;99.90;;;;;;4955730;28;20773;-54
2021/05/17 03:00:15;;;;;;;2.30;2.10;;;12.00;99.90;;;;;;4955926;28;20807;-55
2021/05/17 03:02:54;;;;;;;3.50;2.27;;;12.00;99.90;;;;;;4955246;28;20475;-50
2021/05/17 03:05:21;;;;;;;2.50;2.13;;;12.00;99.90;;;;;;4955180;28;20525;-50
2021/05/17 03:07:51;;;;;;;5.20;2.83;;;12.10;99.90;;;;;;4955300;28;20557;-58
2021/05/17 03:10:17;;;;;;;3.43;2.27;;;12.10;99.90;;;;;;4955326;28;20441;-55
2021/05/17 03:12:45;;;;;;;2.73;2.10;;;12.10;99.90;;;;;;4955175;28;20459;-56
2021/05/17 03:15:14;;;;;;;3.07;2.30;;;12.10;99.90;;;;;;4955937;28;20459;-56
2021/05/17 03:17:40;;;;;;;3.40;2.40;;;12.10;99.90;;;;;;4954716;28;20484;-57
2021/05/17 03:20:07;;;;;;;2.60;2.40;;;12.10;99.90;;;;;;4955079;28;20455;-50
2021/05/17 03:22:34;;;;;;;2.23;1.90;;;12.10;99.90;;;;;;4955074;28;20574;-55
2021/05/17 03:25:06;;;;;;;2.70;1.73;;;12.10;99.90;;;;;;4954798;28;20460;-54
2021/05/17 03:27:33;;;;;;;2.20;1.90;;;12.20;99.90;;;;;;4955405;28;20795;-56
2021/05/17 03:30:00;;;;;;;2.00;1.80;;;12.20;99.90;;;;;;4954735;28;20459;-55
2021/05/17 03:32:26;;;;;;;1.87;1.63;;;12.10;99.90;;;;;;4955454;28;20447;-54
2021/05/17 03:34:53;;;;;;;2.83;2.30;;;12.10;99.90;;;;;;4954714;28;20444;-55
2021/05/17 03:37:19;;;;;;;3.40;2.23;;;12.00;99.90;;;;;;4954841;28;20448;-56
2021/05/17 03:39:47;;;;;;;6.10;2.40;;;12.00;99.90;;;;;;4955024;28;20448;-57
2021/05/17 03:42:14;;;;;;;6.50;2.17;;;12.00;99.90;;;;;;4954612;28;20494;-54
2021/05/17 03:44:40;;;;;;;2.40;2.20;;;12.10;99.90;;;;;;4954749;28;20451;-57
2021/05/17 03:47:07;;;;;;;4.30;3.50;;;12.10;99.90;;;;;;4954310;28;20455;-49
2021/05/17 03:49:33;;;;;;;2.30;2.00;;;12.10;99.90;;;;;;4954893;28;20521;-50
2021/05/17 03:51:59;;;;;;;4.13;2.50;;;12.20;99.90;;;;;;4954864;28;20447;-56
2021/05/17 03:54:25;;;;;;;3.30;2.20;;;12.10;99.90;;;;;;4954501;28;20448;-55
2021/05/17 03:56:53;;;;;;;2.53;2.00;;;12.20;99.90;;;;;;4954708;28;20451;-58
2021/05/17 03:59:19;;;;;;;3.27;2.97;;;12.20;99.90;;;;;;4954422;28;20473;-53
2021/05/17 04:01:46;;;;;;;4.60;3.33;;;12.20;99.90;;;;;;4955024;28;20495;-55
2021/05/17 04:04:14;;;;;;;4.50;2.47;;;12.20;99.90;;;;;;4954210;28;20542;-53
2021/05/17 04:06:46;;;;;;;8.40;3.00;;;12.20;99.90;;;;;;4954308;28;20455;-47
2021/05/17 04:14:41;;;;;;;3.63;3.07;;;12.10;99.90;;;;;;4954338;28;20415;-49
2021/05/17 04:17:07;;;;;;;5.90;3.17;;;12.10;99.90;;;;;;4954251;28;20796;-54
2021/05/17 04:19:34;;;;;;;4.40;2.60;;;12.10;99.90;;;;;;4954122;28;20462;-51
2021/05/17 04:22:00;;;;;;;3.43;2.80;;;12.10;99.90;;;;;;4954452;28;20538;-52
2021/05/17 04:24:27;;;;;;;4.87;3.27;;;12.10;99.90;;;;;;4954275;28;20452;-49
2021/05/17 04:26:53;;;;;;;3.70;2.90;;;12.20;99.90;;;;;;4954483;28;20448;-56
2021/05/17 04:29:19;;;;;;;3.70;2.90;;;12.20;99.90;;;;;;4954077;28;20463;-57
2021/05/17 04:31:47;;;;;;;4.10;2.73;;;12.20;99.90;;;;;;4953771;28;20482;-55
2021/05/17 04:34:13;;;;;;;3.27;2.97;;;12.20;99.90;;;;;;4953665;28;20475;-56
2021/05/17 04:36:40;;;;;;;4.10;2.93;;;12.20;99.90;;;;;;4953892;28;20443;-57
2021/05/17 04:39:07;;;;;;;3.83;3.07;;;12.30;99.90;;;;;;4953876;28;20529;-54
2021/05/17 04:41:33;;;;;;;2.30;2.10;;;12.30;99.90;;;;;;4955322;28;20503;-56
2021/05/17 04:43:59;;;;;;;3.40;2.90;;;12.30;99.90;;;;;;4958063;28;20460;-50
2021/05/17 04:46:25;;;;;;;3.57;2.60;;;12.30;99.90;;;;;;4957128;28;20451;-54
2021/05/17 04:48:52;;;;;;;4.10;2.33;;;12.30;99.90;;;;;;4958113;28;20456;-55
2021/05/17 04:51:19;;;;;;;5.70;2.63;;;12.30;99.90;;;;;;4959148;28;20452;-57
2021/05/17 04:53:46;;;;;;;3.90;2.07;;;12.40;99.90;;;;;;4958261;28;20927;-54
2021/05/17 04:56:12;;;;;;;4.10;3.60;;;12.30;99.90;;;;;;4959239;28;20921;-53
2021/05/17 04:58:39;;;;;;;3.00;2.13;;;12.30;99.90;;;;;;4957662;28;20468;-51
2021/05/17 05:01:05;;;;;;;2.97;2.73;;;12.40;99.90;;;;;;4957252;28;20502;-51
2021/05/17 05:03:31;;;;;;;4.40;2.70;;;12.40;99.90;;;;;;4958739;28;20524;-53
2021/05/17 05:06:00;;;;;;;2.83;2.63;;;12.40;99.90;;;;;;4958833;28;20459;-55
2021/05/17 05:08:26;;;;;;;3.50;2.57;;;12.40;99.90;;;;;;4959412;28;20456;-53
2021/05/17 05:10:53;;;;;;;3.63;2.70;;;12.40;99.90;;;;;;4958279;28;20452;-50
2021/05/17 05:13:20;;;;;;;4.13;2.60;;;12.30;99.90;;;;;;4959433;28;20455;-55
2021/05/17 05:15:50;;;;;;;4.83;2.97;;;12.30;99.90;;;;;;4960559;28;20482;-53
2021/05/17 05:18:16;;;;;;;3.63;2.53;;;12.30;99.90;;;;;;4960061;28;20491;-57
2021/05/17 05:20:42;;;;;;;4.97;3.30;;;12.30;99.90;;;;;;4959085;28;20935;-55
2021/05/17 05:23:12;;;;;;;5.80;3.63;;;12.40;99.90;;;;;;4958666;28;20498;-55
2021/05/17 05:26:05;;;;;;;6.30;3.73;;;12.50;99.90;;;;;;4957875;28;20517;-50
2021/05/17 05:28:41;;;;;;;2.57;2.30;;;12.60;99.90;;;;;;4956461;28;20458;-55
2021/05/17 05:31:13;;;;;;;4.67;2.17;;;12.80;99.90;;;;;;4956325;28;20501;-51
2021/05/17 05:33:39;;;;;;;6.70;3.40;;;12.90;99.90;;;;;;4956534;28;20527;-55
2021/05/17 05:36:06;;;;;;;4.17;2.80;;;13.10;99.90;;;;;;4956789;28;20452;-59
2021/05/17 05:38:32;;;;;;;3.40;2.50;;;13.30;99.90;;;;;;4956171;28;20609;-56
2021/05/17 05:40:58;;;;;;;6.93;1.90;;;13.40;99.90;;;;;;4956512;28;20464;-57
2021/05/17 05:43:24;;;;;;;2.43;1.77;;;13.60;99.90;;;;;;4958142;28;20447;-56
2021/05/17 05:45:51;;;;;;;2.10;1.90;;;13.70;99.90;;;;;;4958833;28;20460;-53
2021/05/17 05:48:18;;;;;;;3.73;2.30;;;13.80;99.90;;;;;;4958204;28;20545;-56
2021/05/17 05:50:46;;;;;;;2.70;1.90;;;13.90;99.90;;;;;;4961554;28;20901;-57
2021/05/17 05:53:14;;;;;;;2.00;1.43;;;13.90;99.90;;;;;;4971984;28;20448;-55
2021/05/17 05:55:40;;;;;;;3.33;2.13;;;13.90;99.90;;;;;;4958720;28;20475;-58
2021/05/17 05:58:06;;;;;;;4.33;3.03;;;13.90;99.90;;;;;;4958193;28;20452;-54
2021/05/17 06:00:32;;;;;;;6.93;3.90;;;13.90;99.90;;;;;;4958069;28;20765;-55
2021/05/17 06:03:00;;;;;;;5.70;2.30;;;13.90;99.90;;;;;;4956831;28;20488;-58
2021/05/17 06:05:26;;;;;;;2.27;1.57;;;13.80;99.90;;;;;;4939288;28;20453;-55
2021/05/17 06:07:53;;;;;;;7.97;2.47;;;13.90;99.90;;;;;;4938042;28;20460;-55
2021/05/17 06:10:20;;;;;;;2.33;1.20;;;14.00;99.90;;;;;;4956337;28;20487;-54
2021/05/17 06:12:47;;;;;;;2.93;1.47;;;14.10;99.90;;;;;;4957895;28;20464;-52
2021/05/17 06:15:15;;;;;;;3.10;1.30;;;14.20;99.90;;;;;;4955653;28;20456;-59
2021/05/17 06:17:42;;;;;;;2.90;1.53;;;14.20;99.90;;;;;;4941959;28;20490;-54
2021/05/17 06:20:10;;;;;;;1.90;1.53;;;14.30;99.90;;;;;;4955535;28;20476;-53
2021/05/17 06:22:38;;;;;;;3.07;2.17;;;14.30;99.90;;;;;;4948395;28;20486;-54
2021/05/17 06:25:06;;;;;;;2.93;1.47;;;14.40;99.90;;;;;;4955492;28;20498;-56
2021/05/17 06:27:33;;;;;;;2.10;1.70;;;14.50;99.90;;;;;;4958284;28;20448;-56
2021/05/17 06:29:59;;;;;;;1.80;1.40;;;14.50;99.90;;;;;;4951187;28;20483;-54
2021/05/17 06:32:27;;;;;;;3.50;2.00;;;14.60;99.90;;;;;;4939024;28;20506;-54
2021/05/17 06:34:55;;;;;;;4.20;1.60;;;14.70;99.90;;;;;;4939011;29;21027;-54
2021/05/17 06:37:22;;;;;;;1.83;1.40;;;14.80;99.90;;;;;;4938657;28;20465;-51
2021/05/17 06:39:49;;;;;;;1.90;1.70;;;15.00;99.90;;;;;;4939992;29;20511;-54
2021/05/17 06:42:16;;;;;;;2.13;1.93;;;15.00;99.90;;;;;;4955367;28;20759;-54
2021/05/17 06:44:42;;;;;;;2.23;2.03;;;15.10;99.90;;;;;;4954792;28;20468;-52
2021/05/17 06:47:10;;;;;;;1.73;1.40;;;15.20;99.90;;;;;;4937952;29;20461;-50
2021/05/17 06:49:37;;;;;;;2.93;1.77;;;15.30;99.90;;;;;;4936943;29;20449;-51
2021/05/17 06:52:04;;;;;;;14.63;1.80;;;15.40;99.90;;;;;;4943858;28;20479;-54
2021/05/17 06:54:31;;;;;;;4.43;2.10;;;15.50;99.90;;;;;;4956266;28;20479;-52
2021/05/17 06:57:05;;;;;;;5.13;1.43;;;15.60;99.90;;;;;;4954967;28;20440;-52
2021/05/17 06:59:41;;;;;;;6.33;2.17;;;15.80;99.90;;;;;;4950913;28;20825;-49
2021/05/17 07:02:10;;;;;;;1.80;1.40;;;15.90;99.90;;;;;;4959298;28;20483;-53
2021/05/17 07:04:38;;;;;;;2.13;1.73;;;15.90;99.90;;;;;;4954780;28;20444;-52
2021/05/17 07:07:06;;;;;;;2.80;1.90;;;16.00;99.90;;;;;;4953992;29;20482;-51
2021/05/17 07:12:18;;;;;;;1.63;1.30;;;16.20;99.90;;;;;;4952079;28;20916;-55
2021/05/17 07:14:44;;;;;;;2.23;1.93;;;16.50;99.90;;;;;;4980042;28;20463;-56
2021/05/17 07:17:12;;;;;;;4.07;2.30;;;17.20;99.90;;;;;;4973502;29;20498;-54
2021/05/17 07:19:39;;;;;;;2.37;1.63;;;18.40;99.90;;;;;;4973863;28;20440;-56
2021/05/17 07:24:50;;;;;;;4.20;2.10;;;21.70;99.90;;;;;;4974521;28;20443;-53
2021/05/17 07:27:17;;;;;;;5.90;1.83;;;23.40;98.90;;;;;;4974063;28;20416;-54
2021/05/17 07:29:44;;;;;;;2.47;1.90;;;24.30;91.50;;;;;;4974871;28;20448;-56
2021/05/17 07:32:11;;;;;;;2.00;1.70;;;25.00;85.30;;;;;;4974616;28;20459;-54
2021/05/17 07:34:42;;;;;;;2.23;1.50;;;25.70;80.40;;;;;;4974611;28;20463;-58
2021/05/17 07:37:10;;;;;;;4.23;1.50;;;26.10;72.30;;;;;;4973993;28;20447;-55
2021/05/17 07:39:37;;;;;;;3.00;2.37;;;27.00;66.90;;;;;;4973671;28;20456;-53
2021/05/17 07:42:04;;;;;;;4.00;2.00;;;28.00;63.20;;;;;;4973197;28;20475;-53
2021/05/17 07:44:31;;;;;;;1.83;1.43;;;28.90;58.40;;;;;;4973781;28;20499;-53
2021/05/17 07:46:57;;;;;;;2.90;1.70;;;29.60;54.90;;;;;;4974767;28;20444;-57
2021/05/17 07:49:34;;;;;;;1.67;1.50;;;29.90;52.90;;;;;;4971956;28;20481;-55
2021/05/17 07:52:01;;;;;;;1.97;1.20;;;29.90;50.60;;;;;;4972556;28;20451;-54
2021/05/17 07:54:29;;;;;;;1.40;0.97;;;30.30;48.70;;;;;;4979165;28;20536;-57
2021/05/17 07:56:55;;;;;;;1.60;1.20;;;30.20;48.00;;;;;;4971281;28;20448;-56
2021/05/17 07:59:23;;;;;;;13.77;10.27;;;30.20;47.50;;;;;;4973182;28;20441;-56
2021/05/17 08:01:52;;;;;;;3.90;1.43;;;30.40;46.70;;;;;;4978216;28;20546;-56
2021/05/17 08:04:18;;;;;;;3.47;2.37;;;30.60;46.10;;;;;;4972292;28;20452;-58
2021/05/17 08:06:45;;;;;;;1.20;1.10;;;29.70;46.60;;;;;;4972116;28;20466;-57
2021/05/17 08:09:13;;;;;;;1.87;1.40;;;28.40;48.20;;;;;;4975910;28;20478;-55
2021/05/17 08:11:39;;;;;;;2.33;1.50;;;27.80;50.10;;;;;;4972748;28;20440;-55
2021/05/17 08:14:06;;;;;;;1.67;1.03;;;28.20;50.00;;;;;;4973126;28;20478;-57
2021/05/17 08:16:34;;;;;;;1.20;1.00;;;28.30;48.80;;;;;;4953231;28;575958;-56
2021/05/17 08:19:00;;;;;;;3.67;2.27;;;27.50;49.80;;;;;;4975223;28;20441;-61
2021/05/17 08:21:27;;;;;;;1.90;1.30;;;26.20;51.50;;;;;;4974712;28;20439;-51
2021/05/17 08:23:56;;;;;;;1.63;1.47;;;25.30;53.80;;;;;;4974327;28;20444;-56
2021/05/17 08:26:22;;;;;;;2.07;1.50;;;24.90;54.70;;;;;;4973873;28;20463;-55
2021/05/17 08:28:48;;;;;;;1.97;1.57;;;24.30;55.60;;;;;;4973230;28;20464;-55
2021/05/17 08:31:17;;;;;;;2.40;1.33;;;23.50;57.40;;;;;;4976970;28;20446;-55
2021/05/17 08:33:45;;;;;;;3.10;1.50;;;23.60;58.20;;;;;;4974228;28;20451;-55
2021/05/17 08:36:13;;;;;;;1.60;1.20;;;24.30;58.10;;;;;;4974098;28;20428;-56
2021/05/17 08:38:40;;;;;;;2.50;1.43;;;24.40;57.50;;;;;;4975087;28;20444;-56
2021/05/17 08:41:07;;;;;;;2.67;1.50;;;24.50;58.60;;;;;;4976559;28;20469;-56
2021/05/17 08:43:36;;;;;;;3.30;1.23;;;24.90;57.90;;;;;;4969161;28;20492;-51
2021/05/17 08:46:03;;;;;;;1.97;1.10;;;25.00;56.80;;;;;;4968999;28;20447;-53
2021/05/17 08:48:31;;;;;;;1.77;1.67;;;25.20;55.50;;;;;;4968138;28;20447;-51
2021/05/17 08:50:58;;;;;;;2.57;1.37;;;24.80;55.60;;;;;;4971151;28;20508;-49
2021/05/17 08:53:24;;;;;;;4.00;2.87;;;23.70;56.30;;;;;;4970395;28;20439;-49
2021/05/17 08:55:51;;;;;;;2.27;1.50;;;22.90;58.00;;;;;;4970518;28;20637;-54
2021/05/17 08:58:19;;;;;;;2.00;1.70;;;21.90;60.20;;;;;;4970344;28;20570;-49
2021/05/17 09:00:46;;;;;;;1.80;1.20;;;21.20;63.00;;;;;;4970326;28;20527;-48
2021/05/17 09:03:12;;;;;;;3.33;1.00;;;20.50;64.10;;;;;;4968942;28;20474;-53
2021/05/17 09:05:39;;;;;;;1.43;1.00;;;20.00;67.10;;;;;;4972386;28;20463;-56
2021/05/17 09:08:06;;;;;;;1.77;1.33;;;20.10;72.80;;;;;;4973465;28;20483;-48
2021/05/17 09:10:35;;;;;;;1.20;1.10;;;20.70;74.70;;;;;;4973821;28;20496;-52
2021/05/17 09:13:05;;;;;;;2.20;1.20;;;21.90;72.10;;;;;;4981881;28;20443;-56
2021/05/17 09:15:34;;;;;;;3.83;1.10;;;23.60;67.90;;;;;;4975663;28;20456;-54
2021/05/17 09:18:02;;;;;;;2.17;1.33;;;25.10;61.90;;;;;;4964945;28;20480;-57
2021/05/17 09:20:35;;;;;;;2.33;1.10;;;25.30;59.10;;;;;;4966952;28;20439;-55
2021/05/17 09:23:16;;;;;;;2.23;1.70;;;24.50;58.90;;;;;;4965112;28;20503;-52
2021/05/17 09:25:59;;;;;;;1.80;1.17;;;23.60;60.50;;;;;;4968513;28;20445;-55
2021/05/17 09:28:27;;;;;;;2.20;1.10;;;22.60;63.50;;;;;;4965978;28;20470;-55
2021/05/17 09:31:02;;;;;;;12.70;3.10;;;21.50;65.10;;;;;;4982430;28;20448;-57
2021/05/17 09:33:30;;;;;;;1.97;1.40;;;20.80;68.30;;;;;;4977591;28;20525;-53
2021/05/17 09:36:05;;;;;;;1.97;1.30;;;20.50;71.50;;;;;;4975771;28;20441;-54
2021/05/17 09:38:34;;;;;;;2.77;1.60;;;20.60;74.40;;;;;;4976426;28;20473;-55
2021/05/17 09:41:06;;;;;;;2.17;1.47;;;20.70;72.50;;;;;;4975655;28;20465;-52
2021/05/17 09:43:33;;;;;;;1.87;0.90;;;21.70;70.50;;;;;;4975258;28;21608;-57
2021/05/17 09:46:01;;;;;;;4.03;1.10;;;23.30;66.70;;;;;;4974116;28;20501;-56
2021/05/17 09:48:30;;;;;;;2.30;1.17;;;24.90;63.50;;;;;;4974858;28;20471;-57
2021/05/17 09:51:03;;;;;;;2.13;1.13;;;26.20;56.30;;;;;;4977974;28;20462;-58
2021/05/17 09:53:35;;;;;;;6.13;2.33;;;26.80;54.50;;;;;;4972494;28;20444;-58
2021/05/17 09:56:08;;;;;;;1.43;1.00;;;27.20;54.10;;;;;;4974244;29;20452;-53
2021/05/17 09:58:37;;;;;;;2.90;1.50;;;27.50;52.90;;;;;;4975014;28;20444;-58
2021/05/17 10:01:13;;;;;;;1.40;1.13;;;27.60;53.20;;;;;;4975189;28;20451;-56
2021/05/17 10:03:43;;;;;;;1.70;1.40;;;27.80;51.20;;;;;;4971318;28;20475;-56
2021/05/17 10:06:11;;;;;;;2.07;1.87;;;28.10;50.30;;;;;;4971721;28;20432;-58
2021/05/17 10:08:39;;;;;;;2.53;1.07;;;27.80;50.40;;;;;;4972021;28;20436;-55
2021/05/17 10:11:07;;;;;;;2.50;1.73;;;26.70;51.10;;;;;;4971579;28;20444;-55
2021/05/17 10:13:37;;;;;;;1.93;1.27;;;25.50;52.10;;;;;;4973846;28;20531;-58
2021/05/17 10:16:06;;;;;;;6.43;2.73;;;24.50;53.30;;;;;;4972120;28;20459;-52
2021/05/17 10:18:33;;;;;;;2.20;1.80;;;23.50;54.40;;;;;;4973375;28;20488;-57
2021/05/17 10:21:00;;;;;;;1.47;1.37;;;22.70;56.70;;;;;;4975511;28;20456;-56
2021/05/17 10:23:27;;;;;;;4.50;1.90;;;22.10;58.40;;;;;;4972485;28;20484;-58
2021/05/17 10:26:09;;;;;;;29.43;17.77;;;21.70;59.80;;;;;;4972971;28;20456;-59
2021/05/17 10:28:37;;;;;;;7.03;4.97;;;21.70;60.70;;;;;;4964602;28;20498;-60
2021/05/17 10:31:12;;;;;;;1.70;1.50;;;22.20;61.70;;;;;;4974628;28;20444;-60
2021/05/17 10:33:39;;;;;;;2.13;1.73;;;22.90;60.80;;;;;;4975284;28;20447;-59
2021/05/17 10:36:07;;;;;;;1.40;1.20;;;23.40;59.90;;;;;;4972839;28;20458;-58
2021/05/17 10:38:40;;;;;;;3.30;2.37;;;23.70;60.90;;;;;;4972543;28;20462;-57
2021/05/17 10:41:38;;;;;;;1.87;1.27;;;24.00;59.80;;;;;;4971794;28;20468;-58
2021/05/17 10:44:12;;;;;;;1.70;1.23;;;24.30;58.90;;;;;;4972858;28;20428;-58
2021/05/17 10:46:40;;;;;;;3.60;2.47;;;24.50;58.40;;;;;;4973446;28;20436;-58
2021/05/17 10:49:32;;;;;;;2.77;2.20;;;24.50;59.50;;;;;;4974412;29;20479;-60
2021/05/17 10:52:31;;;;;;;4.57;2.20;;;23.50;59.10;;;;;;4960835;29;20428;-58
2021/05/17 10:55:06;;;;;;;3.20;1.20;;;22.80;61.90;;;;;;4973446;29;20448;-55
2021/05/17 10:57:39;;;;;;;7.77;2.47;;;22.80;61.30;;;;;;4973508;28;20494;-53
2021/05/17 11:00:25;;;;;;;1.73;1.30;;;22.70;61.70;;;;;;4973244;28;20511;-59
2021/05/17 11:03:12;;;;;;;2.80;1.20;;;22.50;61.50;;;;;;4973607;28;20467;-56
2021/05/17 11:05:40;;;;;;;1.63;1.10;;;22.00;64.90;;;;;;4972386;28;20519;-59
2021/05/17 11:08:09;;;;;;;1.80;1.23;;;22.20;65.10;;;;;;4973471;28;20467;-58
2021/05/17 11:10:39;;;;;;;2.30;1.43;;;22.10;66.40;;;;;;4972955;28;20513;-58
2021/05/17 11:13:12;;;;;;;1.53;1.13;;;22.40;66.30;;;;;;4973120;28;20470;-58
2021/05/17 11:15:53;;;;;;;3.40;1.80;;;22.60;66.70;;;;;;4973090;28;20444;-58
2021/05/17 11:18:33;;;;;;;1.60;1.27;;;22.80;64.60;;;;;;4972248;28;20475;-57
2021/05/17 11:21:02;;;;;;;3.00;2.03;;;22.60;60.70;;;;;;4972389;28;20459;-56
2021/05/17 11:23:48;;;;;;;1.30;0.90;;;22.50;61.80;;;;;;4972505;28;20480;-57
2021/05/17 11:26:17;;;;;;;5.53;1.10;;;22.40;61.20;;;;;;4971626;28;20448;-56
2021/05/17 11:28:59;;;;;;;2.80;1.97;;;22.10;62.10;;;;;;4972495;28;20463;-59
2021/05/17 11:31:42;;;;;;;3.00;1.20;;;21.80;62.70;;;;;;4972478;28;20455;-56
2021/05/17 11:34:14;;;;;;;8.93;6.70;;;21.70;59.30;;;;;;4964465;28;20507;-56
2021/05/17 11:36:43;;;;;;;3.90;3.17;;;21.70;60.10;;;;;;4974418;28;20439;-56
2021/05/17 11:39:14;;;;;;;2.80;1.40;;;22.00;60.90;;;;;;4975014;28;20456;-55
2021/05/17 11:41:44;;;;;;;2.03;1.20;;;22.10;63.00;;;;;;4973257;28;20454;-58
2021/05/17 11:44:14;;;;;;;2.70;1.13;;;21.90;62.70;;;;;;4971789;28;20475;-57
2021/05/17 11:46:43;;;;;;;2.80;1.13;;;21.50;62.60;;;;;;4968465;29;20444;-55
2021/05/17 11:49:13;;;;;;;3.83;1.20;;;21.20;64.20;;;;;;4973425;28;20467;-56
2021/05/17 11:51:40;;;;;;;2.10;1.23;;;21.10;65.00;;;;;;4971807;28;20478;-56
2021/05/17 11:54:07;;;;;;;3.20;1.63;;;21.30;67.40;;;;;;4973317;28;20499;-57
2021/05/17 11:56:35;;;;;;;1.77;1.07;;;21.40;65.90;;;;;;4973637;28;20490;-56
2021/05/17 11:59:12;;;;;;;3.67;1.43;;;21.50;65.30;;;;;;4973872;28;20471;-56
2021/05/17 12:01:41;;;;;;;2.33;1.50;;;21.70;68.10;;;;;;4974062;28;20440;-51
2021/05/17 12:04:13;;;;;;;1.70;1.10;;;22.00;66.00;;;;;;4973936;28;20440;-55
2021/05/17 12:06:40;;;;;;;1.10;0.90;;;22.00;63.10;;;;;;4974257;28;20436;-58
2021/05/17 12:09:06;;;;;;;2.70;1.20;;;21.70;63.40;;;;;;4973281;28;20440;-56
2021/05/17 12:11:34;;;;;;;1.70;1.10;;;21.60;62.70;;;;;;4973412;28;20516;-58
2021/05/17 12:14:07;;;;;;;1.47;1.30;;;21.40;64.20;;;;;;4973668;28;20488;-57
2021/05/17 12:16:37;;;;;;;1.93;1.20;;;21.20;64.10;;;;;;4973309;28;20478;-53
2021/05/17 12:19:05;;;;;;;2.00;0.97;;;20.90;64.90;;;;;;4974639;28;20432;-57
2021/05/17 12:21:33;;;;;;;2.50;1.00;;;20.90;66.90;;;;;;4973275;28;20520;-57
2021/05/17 12:24:00;;;;;;;1.40;1.10;;;20.90;66.50;;;;;;4973019;28;20424;-57
2021/05/17 12:26:47;;;;;;;3.17;1.27;;;21.00;66.40;;;;;;4962122;29;20412;-52
2021/05/17 12:29:14;;;;;;;3.20;1.30;;;21.10;66.70;;;;;;4972922;28;20444;-58
2021/05/17 12:31:40;;;;;;;1.67;1.20;;;21.30;66.40;;;;;;4973207;28;20482;-57
2021/05/17 12:34:09;;;;;;;4.17;1.30;;;21.00;63.80;;;;;;4971842;28;20523;-55
2021/05/17 12:36:35;;;;;;;2.70;1.60;;;20.80;64.20;;;;;;4971363;28;20990;-54
2021/05/17 12:39:02;;;;;;;1.40;1.00;;;20.70;64.60;;;;;;4972292;28;20448;-58
2021/05/17 12:41:37;;;;;;;1.83;1.10;;;20.70;65.60;;;;;;4972260;28;20448;-56
2021/05/17 12:44:24;;;;;;;1.53;1.10;;;20.80;65.90;;;;;;4973198;28;20439;-54
2021/05/17 12:47:01;;;;;;;1.20;0.90;;;21.10;66.20;;;;;;4966200;29;20431;-55
2021/05/17 12:49:46;;;;;;;1.53;1.07;;;21.30;63.90;;;;;;4973787;28;20504;-58
2021/05/17 12:52:24;;;;;;;1.97;1.33;;;21.40;63.40;;;;;;4973911;28;20475;-51
2021/05/17 12:55:12;;;;;;;1.20;1.00;;;21.50;63.10;;;;;;4973690;28;20447;-50
2021/05/17 12:57:50;;;;;;;1.80;1.30;;;21.60;63.70;;;;;;4969901;29;20435;-52
2021/05/17 13:00:33;;;;;;;2.33;1.50;;;21.80;64.00;;;;;;4973389;28;20444;-52
2021/05/17 13:03:05;;;;;;;1.20;0.93;;;21.90;61.30;;;;;;4975824;28;20483;-54
2021/05/17 13:05:59;;;;;;;3.30;1.27;;;21.70;60.80;;;;;;4976080;28;20526;-54
2021/05/17 13:09:00;;;;;;;3.10;1.40;;;21.60;60.30;;;;;;4976767;28;20450;-56